createdAt,value
2023-04-23T00:00:13.944Z,100.00
2023-04-23T00:02:46.465Z,100.00
2023-04-23T00:05:14.368Z,100.00
2023-04-23T00:07:42.336Z,100.00
2023-04-23T00:10:10.202Z,100.00
2023-04-23T00:12:38.068Z,100.00
2023-04-23T00:15:06.659Z,100.00
2023-04-23T00:17:34.359Z,100.00
2023-04-23T00:20:01.712Z,100.00
2023-04-23T00:22:29.643Z,100.00
2023-04-23T00:24:56.821Z,100.00
2023-04-23T00:27:23.938Z,100.00
2023-04-23T00:29:51.473Z,100.00
2023-04-23T00:32:19.197Z,100.00
2023-04-23T00:34:48.384Z,100.00
2023-04-23T00:37:15.856Z,100.00
2023-04-23T00:39:43.581Z,100.00
2023-04-23T00:42:16.768Z,100.00
2023-04-23T00:44:44.364Z,100.00
2023-04-23T00:47:12.085Z,100.00
2023-04-23T00:49:39.551Z,100.00
2023-04-23T00:52:06.768Z,100.00
2023-04-23T00:54:34.596Z,100.00
2023-04-23T00:57:02.019Z,100.00
2023-04-23T00:59:29.403Z,100.00
2023-04-23T01:01:57.854Z,100.00
2023-04-23T01:04:25.831Z,100.00
2023-04-23T01:06:53.379Z,100.00
2023-04-23T01:09:20.844Z,100.00
2023-04-23T01:11:48.398Z,100.00
2023-04-23T01:14:16.053Z,100.00
2023-04-23T01:16:43.491Z,100.00
2023-04-23T01:19:11.380Z,100.00
2023-04-23T01:21:41.107Z,100.00
2023-04-23T01:24:08.769Z,100.00
2023-04-23T01:26:36.015Z,100.00
2023-04-23T01:29:03.446Z,100.00
2023-04-23T01:31:32.185Z,100.00
2023-04-23T01:33:59.772Z,100.00
2023-04-23T01:36:27.464Z,100.00
2023-04-23T01:38:54.817Z,100.00
2023-04-23T01:41:22.178Z,100.00
2023-04-23T01:43:50.086Z,100.00
2023-04-23T01:46:18.025Z,100.00
2023-04-23T01:48:45.565Z,100.00
2023-04-23T01:51:12.820Z,100.00
2023-04-23T01:53:40.484Z,100.00
2023-04-23T01:56:09.507Z,100.00
2023-04-23T01:58:37.643Z,100.00
2023-04-23T02:01:05.609Z,100.00
2023-04-23T02:03:33.715Z,100.00
2023-04-23T02:06:01.424Z,100.00
2023-04-23T02:08:29.006Z,100.00
2023-04-23T02:10:56.769Z,100.00
2023-04-23T02:13:23.984Z,100.00
2023-04-23T02:15:51.334Z,100.00
2023-04-23T02:18:18.787Z,100.00
2023-04-23T02:20:46.374Z,100.00
2023-04-23T02:23:13.958Z,100.00
2023-04-23T02:25:43.049Z,100.00
2023-04-23T02:28:12.867Z,100.00
2023-04-23T02:30:45.547Z,100.00
2023-04-23T02:33:12.789Z,100.00
2023-04-23T02:35:40.656Z,100.00
2023-04-23T02:38:08.243Z,100.00
2023-04-23T02:40:36.593Z,100.00
2023-04-23T02:43:04.153Z,100.00
2023-04-23T02:45:31.825Z,100.00
2023-04-23T02:48:00.481Z,100.00
2023-04-23T02:50:27.953Z,100.00
2023-04-23T02:52:55.823Z,100.00
2023-04-23T02:55:24.877Z,100.00
2023-04-23T02:57:52.477Z,100.00
2023-04-23T03:00:19.958Z,100.00
2023-04-23T03:02:47.555Z,100.00
2023-04-23T03:05:15.441Z,100.00
2023-04-23T03:07:43.024Z,100.00
2023-04-23T03:10:10.689Z,100.00
2023-04-23T03:12:39.056Z,100.00
2023-04-23T03:15:07.046Z,100.00
2023-04-23T03:17:38.300Z,100.00
2023-04-23T03:20:08.311Z,100.00
2023-04-23T03:22:36.386Z,100.00
2023-04-23T03:25:04.221Z,100.00
2023-04-23T03:27:32.021Z,100.00
2023-04-23T03:29:59.770Z,100.00
2023-04-23T03:32:27.364Z,100.00
2023-04-23T03:34:55.001Z,100.00
2023-04-23T03:37:22.969Z,100.00
2023-04-23T03:39:50.810Z,100.00
2023-04-23T03:42:18.565Z,100.00
2023-04-23T03:44:46.027Z,100.00
2023-04-23T03:47:13.428Z,100.00
2023-04-23T03:49:41.047Z,100.00
2023-04-23T03:52:09.216Z,100.00
2023-04-23T03:54:38.700Z,100.00
2023-04-23T03:57:12.021Z,100.00
2023-04-23T03:59:51.025Z,100.00
2023-04-23T04:02:19.184Z,100.00
2023-04-23T04:04:49.560Z,100.00
2023-04-23T04:07:17.851Z,100.00
2023-04-23T04:09:46.650Z,100.00
2023-04-23T04:12:15.601Z,100.00
2023-04-23T04:14:43.690Z,100.00
2023-04-23T04:17:12.093Z,100.00
2023-04-23T04:19:39.758Z,100.00
2023-04-23T04:22:06.991Z,100.00
2023-04-23T04:24:35.120Z,100.00
2023-04-23T04:27:02.784Z,100.00
2023-04-23T04:29:30.985Z,100.00
2023-04-23T04:31:58.898Z,100.00
2023-04-23T04:34:27.416Z,100.00
2023-04-23T04:36:54.668Z,100.00
2023-04-23T04:39:22.077Z,100.00
2023-04-23T04:41:51.272Z,100.00
2023-04-23T04:44:19.048Z,100.00
2023-04-23T04:46:48.554Z,100.00
2023-04-23T04:49:19.055Z,100.00
2023-04-23T04:51:47.136Z,100.00
2023-04-23T04:54:15.110Z,100.00
2023-04-23T04:56:43.025Z,100.00
2023-04-23T04:59:10.687Z,100.00
2023-04-23T05:01:38.261Z,100.00
2023-04-23T05:04:06.115Z,100.00
2023-04-23T05:06:33.667Z,100.00
2023-04-23T05:09:01.022Z,100.00
2023-04-23T05:11:28.582Z,100.00
2023-04-23T05:13:56.353Z,100.00
2023-04-23T05:16:26.712Z,100.00
2023-04-23T05:18:54.235Z,100.00
2023-04-23T05:21:22.093Z,100.00
2023-04-23T05:23:49.983Z,100.00
2023-04-23T05:26:17.834Z,100.00
2023-04-23T05:28:45.285Z,100.00
2023-04-23T05:31:13.193Z,100.00
2023-04-23T05:33:49.335Z,100.00
2023-04-23T05:36:18.095Z,100.00
2023-04-23T05:38:46.182Z,100.00
2023-04-23T05:41:13.826Z,100.00
2023-04-23T05:43:41.378Z,100.00
2023-04-23T05:46:09.230Z,100.00
2023-04-23T05:48:36.919Z,100.00
2023-04-23T05:51:04.116Z,100.00
2023-04-23T05:53:31.436Z,100.00
2023-04-23T05:55:59.212Z,100.00
2023-04-23T05:58:26.644Z,100.00
2023-04-23T06:00:54.391Z,100.00
2023-04-23T06:03:22.028Z,100.00
2023-04-23T06:05:49.722Z,100.00
2023-04-23T06:08:17.011Z,100.00
2023-04-23T06:10:44.533Z,100.00
2023-04-23T06:13:12.129Z,100.00
2023-04-23T06:15:39.192Z,100.00
2023-04-23T06:18:06.398Z,100.00
2023-04-23T06:20:35.164Z,100.00
2023-04-23T06:23:02.627Z,100.00
2023-04-23T06:25:30.294Z,100.00
2023-04-23T06:27:57.964Z,100.00
2023-04-23T06:30:26.333Z,100.00
2023-04-23T06:32:53.939Z,100.00
2023-04-23T06:35:21.460Z,100.00
2023-04-23T06:37:48.774Z,100.00
2023-04-23T06:40:16.019Z,100.00
2023-04-23T06:42:45.065Z,100.00
2023-04-23T06:45:19.373Z,100.00
2023-04-23T06:47:48.894Z,100.00
2023-04-23T06:50:16.263Z,100.00
2023-04-23T06:52:44.016Z,100.00
2023-04-23T06:55:11.586Z,100.00
2023-04-23T06:57:39.609Z,100.00
2023-04-23T07:00:08.718Z,100.00
2023-04-23T07:02:38.850Z,100.00
2023-04-23T07:05:06.289Z,100.00
2023-04-23T07:07:38.979Z,100.00
2023-04-23T07:10:07.495Z,100.00
2023-04-23T07:12:35.297Z,100.00
2023-04-23T07:15:03.929Z,100.00
2023-04-23T07:17:33.462Z,100.00
2023-04-23T07:20:06.525Z,100.00
2023-04-23T07:22:34.619Z,100.00
2023-04-23T07:25:02.272Z,100.00
2023-04-23T07:27:30.735Z,100.00
2023-04-23T07:29:58.017Z,100.00
2023-04-23T07:32:27.805Z,100.00
2023-04-23T07:34:56.130Z,100.00
2023-04-23T07:37:24.486Z,100.00
2023-04-23T07:39:54.093Z,100.00
2023-04-23T07:42:21.554Z,100.00
2023-04-23T07:44:51.429Z,100.00
2023-04-23T07:47:18.882Z,100.00
2023-04-23T07:49:46.340Z,100.00
2023-04-23T07:52:15.130Z,100.00
2023-04-23T07:54:43.406Z,100.00
2023-04-23T07:57:11.879Z,100.00
2023-04-23T07:59:39.608Z,100.00
2023-04-23T08:02:08.404Z,100.00
2023-04-23T08:04:36.271Z,100.00
2023-04-23T08:07:05.186Z,100.00
2023-04-23T08:09:33.404Z,100.00
2023-04-23T08:12:02.152Z,100.00
2023-04-23T08:14:31.263Z,100.00
2023-04-23T08:16:59.202Z,100.00
2023-04-23T08:19:31.185Z,100.00
2023-04-23T08:21:58.522Z,100.00
2023-04-23T08:24:26.902Z,100.00
2023-04-23T08:26:55.495Z,100.00
2023-04-23T08:29:24.917Z,100.00
2023-04-23T08:31:52.642Z,100.00
2023-04-23T08:34:20.203Z,100.00
2023-04-23T08:36:49.046Z,99.67
2023-04-23T08:39:16.670Z,98.66
2023-04-23T08:41:44.319Z,97.58
2023-04-23T08:44:28.260Z,94.84
2023-04-23T08:46:55.924Z,93.01
2023-04-23T08:49:23.877Z,93.55
2023-04-23T08:51:54.312Z,93.62
2023-04-23T09:45:47.227Z,77.41
2023-04-23T09:48:14.568Z,75.72
2023-04-23T09:50:41.907Z,73.60
2023-04-23T09:53:10.613Z,72.75
2023-04-23T09:55:38.605Z,71.63
2023-04-23T09:58:12.278Z,71.00
2023-04-23T10:00:40.183Z,70.80
2023-04-23T10:03:09.295Z,71.49
2023-04-23T10:06:03.861Z,71.01
2023-04-23T10:08:31.989Z,70.16
2023-04-23T10:11:09.991Z,67.81
2023-04-23T10:13:46.764Z,67.67
2023-04-23T10:16:22.333Z,66.55
2023-04-23T10:18:54.826Z,65.84
2023-04-23T10:21:24.187Z,65.37
2023-04-23T10:23:53.082Z,65.39
2023-04-23T10:26:21.435Z,65.99
2023-04-23T10:28:50.347Z,66.67
2023-04-23T10:31:17.629Z,67.01
2023-04-23T10:33:56.098Z,67.89
2023-04-23T10:36:27.836Z,67.79
2023-04-23T10:39:00.158Z,66.98
2023-04-23T10:41:28.832Z,67.61
2023-04-23T10:43:56.248Z,68.84
2023-04-23T10:46:30.587Z,70.69
2023-04-23T10:49:19.254Z,70.96
2023-04-23T10:52:17.767Z,70.15
2023-04-23T10:54:35.979Z,69.61
2023-04-23T10:57:04.465Z,69.81
2023-04-23T10:59:32.429Z,70.13
2023-04-23T11:02:06.779Z,69.99
2023-04-23T11:04:35.532Z,68.58
2023-04-23T11:07:07.151Z,68.60
2023-04-23T11:09:42.400Z,69.12
2023-04-23T11:12:11.178Z,68.96
2023-04-23T11:14:41.607Z,69.51
2023-04-23T11:17:12.829Z,68.50
2023-04-23T11:19:43.063Z,67.13
2023-04-23T11:22:21.256Z,67.45
2023-04-23T11:25:08.746Z,66.61
2023-04-23T11:27:39.478Z,63.46
2023-04-23T11:30:17.016Z,63.56
2023-04-23T11:32:45.685Z,62.78
2023-04-23T11:35:13.920Z,60.40
2023-04-23T11:37:41.896Z,61.41
2023-04-23T11:40:10.786Z,60.88
2023-04-23T11:42:47.640Z,59.65
2023-04-23T11:45:15.533Z,60.54
2023-04-23T11:47:45.697Z,58.80
2023-04-23T11:50:19.616Z,54.91
2023-04-23T11:52:46.836Z,53.52
2023-04-23T11:55:14.320Z,52.92
2023-04-23T11:57:48.816Z,51.08
2023-04-23T12:00:20.693Z,51.93
2023-04-23T12:02:50.958Z,51.43
2023-04-23T12:05:38.472Z,50.63
2023-04-23T12:08:06.741Z,51.00
2023-04-23T12:10:35.358Z,49.54
2023-04-23T12:13:03.123Z,49.77
2023-04-23T12:15:30.887Z,49.23
2023-04-23T12:18:11.687Z,49.14
2023-04-23T12:20:40.063Z,49.26
2023-04-23T12:23:07.965Z,47.68
2023-04-23T12:25:35.793Z,47.14
2023-04-23T12:28:07.017Z,47.04
2023-04-23T12:30:42.463Z,46.75
2023-04-23T12:33:10.464Z,47.97
2023-04-23T12:35:46.367Z,48.43
2023-04-23T12:38:24.182Z,50.74
2023-04-23T12:40:52.655Z,49.43
2023-04-23T12:43:20.228Z,47.93
2023-04-23T12:45:47.878Z,46.90
2023-04-23T12:48:16.154Z,46.51
2023-04-23T12:50:47.912Z,45.56
2023-04-23T12:53:15.427Z,44.27
2023-04-23T12:55:45.245Z,42.95
2023-04-23T12:58:13.629Z,42.34
2023-04-23T13:00:40.943Z,43.15
2023-04-23T13:03:08.754Z,44.07
2023-04-23T13:05:36.447Z,43.22
2023-04-23T13:08:03.827Z,43.65
2023-04-23T13:10:32.274Z,45.93
2023-04-23T13:12:59.833Z,47.64
2023-04-23T13:15:27.543Z,48.85
2023-04-23T13:17:55.305Z,50.02
2023-04-23T13:20:24.779Z,51.65
2023-04-23T13:22:52.454Z,53.02
2023-04-23T13:25:20.193Z,54.70
2023-04-23T13:27:47.851Z,56.86
2023-04-23T13:30:18.246Z,59.05
2023-04-23T13:32:45.883Z,61.25
2023-04-23T13:35:16.263Z,63.84
2023-04-23T13:37:43.775Z,66.93
2023-04-23T13:40:11.784Z,70.04
2023-04-23T13:42:39.568Z,73.59
2023-04-23T13:45:07.627Z,77.62
2023-04-23T13:47:34.976Z,82.07
2023-04-23T13:50:05.545Z,85.96
2023-04-23T13:52:33.677Z,90.13
2023-04-23T13:55:03.272Z,93.59
2023-04-23T13:57:31.018Z,97.84
2023-04-23T13:59:59.813Z,98.99
2023-04-23T14:02:27.338Z,99.98
2023-04-23T14:04:55.411Z,100.00
2023-04-23T14:07:23.847Z,100.00
2023-04-23T14:09:52.537Z,100.00
2023-04-23T14:12:20.292Z,100.00
2023-04-23T14:14:47.752Z,100.00
2023-04-23T14:17:15.720Z,100.00
2023-04-23T14:19:44.198Z,100.00
2023-04-23T14:22:11.866Z,100.00
2023-04-23T14:24:40.861Z,100.00
2023-04-23T14:27:07.866Z,100.00
2023-04-23T14:29:37.405Z,100.00
2023-04-23T14:32:08.724Z,100.00
2023-04-23T14:34:37.247Z,100.00
2023-04-23T14:37:04.920Z,100.00
2023-04-23T14:39:34.503Z,100.00
2023-04-23T14:42:02.913Z,100.00
2023-04-23T14:44:30.344Z,100.00
2023-04-23T14:47:00.272Z,100.00
2023-04-23T14:49:28.842Z,100.00
2023-04-23T14:51:57.692Z,100.00
2023-04-23T14:54:25.244Z,100.00
2023-04-23T14:56:52.674Z,100.00
2023-04-23T14:59:20.813Z,100.00
2023-04-23T15:01:48.692Z,100.00
2023-04-23T15:04:18.194Z,100.00
2023-04-23T15:06:45.431Z,100.00
2023-04-23T15:09:13.622Z,100.00
2023-04-23T15:11:42.908Z,100.00
2023-04-23T15:14:20.397Z,100.00
2023-04-23T15:16:49.677Z,100.00
2023-04-23T15:19:17.636Z,100.00
2023-04-23T15:21:45.980Z,100.00
2023-04-23T15:24:14.037Z,100.00
2023-04-23T15:26:42.090Z,100.00
2023-04-23T15:29:09.830Z,100.00
2023-04-23T15:31:37.615Z,100.00
2023-04-23T15:34:07.877Z,100.00
2023-04-23T15:36:36.932Z,100.00
2023-04-23T15:39:05.125Z,100.00
2023-04-23T15:41:32.883Z,100.00
2023-04-23T15:44:01.456Z,100.00
2023-04-23T15:46:29.427Z,100.00
2023-04-23T15:48:56.876Z,100.00
2023-04-23T15:51:24.342Z,100.00
2023-04-23T15:53:51.683Z,100.00
2023-04-23T15:56:22.843Z,100.00
2023-04-23T15:58:50.190Z,100.00
2023-04-23T16:01:17.683Z,100.00
2023-04-23T16:03:57.972Z,100.00
2023-04-23T16:06:35.096Z,100.00
2023-04-23T16:09:06.049Z,100.00
2023-04-23T16:11:34.498Z,100.00
2023-04-23T16:14:01.952Z,100.00
2023-04-23T16:16:30.444Z,100.00
2023-04-23T16:18:57.984Z,100.00
2023-04-23T16:21:27.695Z,100.00
2023-04-23T16:23:55.374Z,100.00
2023-04-23T16:26:22.826Z,100.00
2023-04-23T16:29:01.006Z,100.00
2023-04-23T16:31:38.929Z,100.00
2023-04-23T16:34:07.628Z,100.00
2023-04-23T16:36:35.365Z,100.00
2023-04-23T16:39:03.870Z,100.00
2023-04-23T16:41:32.038Z,100.00
2023-04-23T16:43:59.429Z,100.00
2023-04-23T16:46:29.590Z,100.00
2023-04-23T16:48:57.327Z,100.00
2023-04-23T16:51:26.071Z,100.00
2023-04-23T16:53:53.849Z,100.00
2023-04-23T16:56:22.221Z,100.00
2023-04-23T16:58:50.379Z,100.00
2023-04-23T17:01:17.816Z,100.00
2023-04-23T17:03:45.560Z,100.00
2023-04-23T17:06:30.797Z,100.00
2023-04-23T17:08:58.624Z,100.00
2023-04-23T17:11:26.651Z,100.00
2023-04-23T17:13:57.002Z,100.00
2023-04-23T17:16:27.235Z,100.00
2023-04-23T17:18:54.622Z,100.00
2023-04-23T17:21:23.718Z,100.00
2023-04-23T17:23:50.910Z,100.00
2023-04-23T17:26:18.821Z,100.00
2023-04-23T17:28:46.172Z,100.00
2023-04-23T17:31:15.731Z,100.00
2023-04-23T17:33:45.090Z,100.00
2023-04-23T17:36:12.621Z,100.00
2023-04-23T17:38:41.020Z,100.00
2023-04-23T17:41:09.199Z,100.00
2023-04-23T17:43:36.871Z,100.00
2023-04-23T17:46:04.864Z,100.00
2023-04-23T17:48:32.548Z,100.00
2023-04-23T17:50:59.727Z,100.00
2023-04-23T17:53:28.942Z,100.00
2023-04-23T17:55:59.971Z,100.00
2023-04-23T17:58:47.610Z,100.00
2023-04-23T18:01:17.869Z,100.00
2023-04-23T18:03:45.440Z,100.00
2023-04-23T18:06:13.339Z,100.00
2023-04-23T18:08:42.612Z,100.00
2023-04-23T18:11:10.315Z,100.00
2023-04-23T18:13:37.764Z,100.00
2023-04-23T18:16:05.220Z,100.00
2023-04-23T18:18:33.087Z,100.00
2023-04-23T18:21:02.386Z,100.00
2023-04-23T18:23:30.930Z,100.00
2023-04-23T18:26:03.445Z,100.00
2023-04-23T18:28:32.495Z,100.00
2023-04-23T18:31:01.964Z,100.00
2023-04-23T18:33:31.601Z,100.00
2023-04-23T18:36:04.150Z,100.00
2023-04-23T18:38:39.479Z,100.00
2023-04-23T18:41:06.834Z,100.00
2023-04-23T18:43:34.701Z,100.00
2023-04-23T18:46:02.283Z,100.00
2023-04-23T18:48:32.750Z,100.00
2023-04-23T18:51:08.601Z,100.00
2023-04-23T18:53:38.453Z,100.00
2023-04-23T18:56:10.106Z,100.00
2023-04-23T18:58:39.098Z,100.00
2023-04-23T19:01:06.342Z,100.00
2023-04-23T19:03:35.691Z,100.00
2023-04-23T19:06:07.118Z,100.00
2023-04-23T19:08:37.646Z,100.00
2023-04-23T19:11:04.738Z,100.00
2023-04-23T19:13:32.392Z,100.00
2023-04-23T19:16:00.031Z,100.00
2023-04-23T19:18:27.757Z,100.00
2023-04-23T19:20:55.698Z,100.00
2023-04-23T19:23:22.864Z,100.00
2023-04-23T19:25:51.361Z,100.00
2023-04-23T19:28:19.462Z,100.00
2023-04-23T19:30:48.226Z,100.00
2023-04-23T19:33:15.975Z,100.00
2023-04-23T19:35:43.286Z,100.00
2023-04-23T19:38:10.695Z,100.00
2023-04-23T19:40:39.352Z,100.00
2023-04-23T19:43:07.043Z,100.00
2023-04-23T19:45:34.492Z,100.00
2023-04-23T19:48:04.146Z,100.00
2023-04-23T19:50:31.885Z,100.00
2023-04-23T19:52:59.395Z,100.00
2023-04-23T19:55:27.393Z,100.00
2023-04-23T19:57:55.573Z,100.00
2023-04-23T20:00:23.526Z,100.00
2023-04-23T20:03:11.197Z,100.00
2023-04-23T20:05:38.835Z,100.00
2023-04-23T20:08:14.265Z,100.00
2023-04-23T20:10:42.020Z,100.00
2023-04-23T20:13:09.337Z,100.00
2023-04-23T20:15:37.176Z,100.00
2023-04-23T20:18:05.646Z,100.00
2023-04-23T20:20:33.592Z,100.00
2023-04-23T20:23:01.562Z,100.00
2023-04-23T20:25:29.305Z,100.00
2023-04-23T20:27:56.782Z,100.00
2023-04-23T20:30:24.447Z,100.00
2023-04-23T20:32:52.088Z,100.00
2023-04-23T20:35:19.572Z,100.00
2023-04-23T20:37:47.737Z,100.00
2023-04-23T20:40:15.394Z,100.00
2023-04-23T20:42:42.899Z,100.00
2023-04-23T20:45:11.217Z,100.00
2023-04-23T20:47:38.755Z,100.00
2023-04-23T20:50:06.440Z,100.00
2023-04-23T20:52:34.223Z,100.00
2023-04-23T20:55:01.672Z,100.00
2023-04-23T20:57:29.233Z,100.00
2023-04-23T20:59:56.586Z,100.00
2023-04-23T21:02:23.989Z,100.00
2023-04-23T21:04:51.190Z,100.00
2023-04-23T21:07:18.929Z,100.00
2023-04-23T21:09:46.614Z,100.00
2023-04-23T21:12:13.965Z,100.00
2023-04-23T21:14:41.742Z,100.00
2023-04-23T21:17:09.140Z,100.00
2023-04-23T21:19:37.053Z,100.00
2023-04-23T21:22:04.411Z,100.00
2023-04-23T21:24:31.870Z,100.00
2023-04-23T21:26:59.341Z,100.00
2023-04-23T21:29:26.882Z,100.00
2023-04-23T21:31:54.602Z,100.00
2023-04-23T21:34:21.792Z,100.00
2023-04-23T21:36:49.454Z,100.00
2023-04-23T21:39:16.871Z,100.00
2023-04-23T21:41:45.044Z,100.00
2023-04-23T21:44:12.543Z,100.00
2023-04-23T21:46:40.841Z,100.00
2023-04-23T21:49:08.783Z,100.00
2023-04-23T21:51:36.552Z,100.00
2023-04-23T21:54:05.333Z,100.00
2023-04-23T21:56:33.203Z,100.00
2023-04-23T21:59:01.097Z,100.00
2023-04-23T22:01:28.691Z,100.00
2023-04-23T22:03:56.395Z,100.00
2023-04-23T22:06:25.077Z,100.00
2023-04-23T22:08:54.241Z,100.00
2023-04-23T22:11:22.086Z,100.00
2023-04-23T22:13:49.451Z,100.00
2023-04-23T22:16:27.300Z,100.00
2023-04-23T22:18:56.503Z,100.00
2023-04-23T22:21:23.869Z,100.00
2023-04-23T22:23:51.199Z,100.00
2023-04-23T22:26:18.720Z,100.00
2023-04-23T22:28:46.018Z,100.00
2023-04-23T22:31:16.982Z,100.00
2023-04-23T22:33:44.310Z,100.00
2023-04-23T22:36:11.728Z,100.00
2023-04-23T22:38:39.432Z,100.00
2023-04-23T22:41:07.194Z,100.00
2023-04-23T22:43:34.682Z,100.00
2023-04-23T22:46:03.264Z,100.00
2023-04-23T22:48:31.501Z,100.00
2023-04-23T22:50:58.908Z,100.00
2023-04-23T22:53:26.307Z,100.00
2023-04-23T22:55:53.669Z,100.00
2023-04-23T22:58:21.223Z,100.00
2023-04-23T23:00:48.179Z,100.00
2023-04-23T23:03:16.092Z,100.00
2023-04-23T23:05:43.698Z,100.00
2023-04-23T23:08:11.052Z,100.00
2023-04-23T23:10:39.330Z,100.00
2023-04-23T23:13:06.996Z,100.00
2023-04-23T23:15:34.259Z,100.00
2023-04-23T23:18:02.135Z,100.00
2023-04-23T23:20:29.648Z,100.00
2023-04-23T23:22:56.934Z,100.00
2023-04-23T23:25:24.374Z,100.00
2023-04-23T23:27:51.763Z,100.00
2023-04-23T23:30:19.182Z,100.00
2023-04-23T23:32:46.545Z,100.00
2023-04-23T23:35:14.097Z,100.00
2023-04-23T23:37:41.458Z,100.00
2023-04-23T23:40:10.247Z,100.00
2023-04-23T23:42:37.834Z,100.00
2023-04-23T23:45:05.672Z,100.00
2023-04-23T23:47:32.985Z,100.00
2023-04-23T23:50:00.267Z,100.00
2023-04-23T23:52:27.365Z,100.00
2023-04-23T23:54:54.710Z,100.00
2023-04-23T23:57:22.133Z,100.00
2023-04-23T23:59:49.789Z,100.00
